createdAt,value
2023-10-10T00:00:48.209Z,97037.75
2023-10-10T00:02:20.522Z,97035.34
2023-10-10T00:03:54.867Z,97041.81
2023-10-10T00:05:37.585Z,97044.25
2023-10-10T00:07:09.903Z,97037.31
2023-10-10T00:08:42.114Z,97043.47
2023-10-10T00:10:14.651Z,97046.44
2023-10-10T00:11:49.712Z,97050.81
2023-10-10T00:13:21.383Z,97042.69
2023-10-10T00:14:54.434Z,97055.03
2023-10-10T00:16:32.648Z,97049.00
2023-10-10T00:18:11.324Z,97042.00
2023-10-10T00:19:46.284Z,97040.69
2023-10-10T00:21:29.798Z,97042.41
2023-10-10T00:23:05.292Z,97033.44
2023-10-10T00:24:37.047Z,97032.72
2023-10-10T00:26:13.137Z,97038.66
2023-10-10T00:27:45.061Z,97032.09
2023-10-10T00:29:19.810Z,97029.97
2023-10-10T00:30:51.610Z,97028.25
2023-10-10T00:32:27.087Z,97025.53
2023-10-10T00:33:59.503Z,97024.06
2023-10-10T00:35:32.728Z,97019.47
2023-10-10T00:37:12.248Z,97005.81
2023-10-10T00:38:43.902Z,97009.44
2023-10-10T00:40:26.603Z,97010.00
2023-10-10T00:42:05.104Z,97008.78
2023-10-10T00:43:38.049Z,97005.13
2023-10-10T00:45:16.484Z,97011.44
2023-10-10T00:46:52.546Z,97013.75
2023-10-10T00:48:27.363Z,97004.09
2023-10-10T00:50:00.298Z,97007.19
2023-10-10T00:51:33.341Z,97010.66
2023-10-10T00:53:09.427Z,97017.66
2023-10-10T00:54:44.529Z,97021.63
2023-10-10T00:56:16.629Z,97018.47
2023-10-10T00:57:53.888Z,97016.69
2023-10-10T00:59:43.914Z,97028.59
2023-10-10T01:01:16.266Z,97022.03
2023-10-10T01:02:54.986Z,97018.88
2023-10-10T01:04:40.330Z,97024.16
2023-10-10T01:06:27.711Z,97016.19
2023-10-10T01:08:00.512Z,97016.28
2023-10-10T01:09:35.008Z,97019.16
2023-10-10T01:11:06.697Z,97018.09
2023-10-10T01:12:40.512Z,97020.53
2023-10-10T01:14:19.531Z,97012.75
2023-10-10T01:15:51.267Z,97010.31
2023-10-10T01:17:30.103Z,97011.97
2023-10-10T01:19:02.874Z,97016.13
2023-10-10T01:20:36.366Z,97021.34
2023-10-10T01:22:23.551Z,97015.34
2023-10-10T01:23:57.159Z,97014.56
2023-10-10T01:25:34.934Z,97009.09
2023-10-10T01:27:17.199Z,97005.09
2023-10-10T01:28:48.882Z,97004.97
2023-10-10T01:30:20.741Z,97003.09
2023-10-10T01:31:53.380Z,97001.69
2023-10-10T01:33:38.495Z,97002.31
2023-10-10T01:35:17.478Z,97002.22
2023-10-10T01:36:51.872Z,97007.28
2023-10-10T01:38:36.842Z,97003.41
2023-10-10T01:40:16.716Z,97000.94
2023-10-10T01:41:51.831Z,96994.28
2023-10-10T01:43:23.547Z,96991.03
2023-10-10T01:44:56.039Z,96994.94
2023-10-10T01:46:30.758Z,96993.16
2023-10-10T01:48:09.376Z,96993.06
2023-10-10T01:49:41.345Z,96992.75
2023-10-10T01:51:16.295Z,96985.00
2023-10-10T01:52:51.042Z,96992.41
2023-10-10T01:54:23.441Z,96991.38
2023-10-10T01:55:55.087Z,96992.53
2023-10-10T01:57:27.633Z,97005.63
2023-10-10T01:59:04.232Z,96991.91
2023-10-10T02:00:36.915Z,96993.22
2023-10-10T02:02:11.531Z,96991.47
2023-10-10T02:03:43.754Z,96994.16
2023-10-10T02:05:21.993Z,96988.59
2023-10-10T02:06:57.961Z,96993.25
2023-10-10T02:08:31.583Z,96990.56
2023-10-10T02:10:18.609Z,96995.78
2023-10-10T02:11:56.208Z,96997.09
2023-10-10T02:13:28.276Z,96998.81
2023-10-10T02:15:00.904Z,97002.28
2023-10-10T02:16:37.234Z,97002.06
2023-10-10T02:18:13.864Z,96997.72
2023-10-10T02:19:45.524Z,96993.72
2023-10-10T02:21:18.151Z,96991.94
2023-10-10T02:22:50.297Z,96998.38
2023-10-10T02:24:29.032Z,96989.81
2023-10-10T02:26:04.786Z,96993.22
2023-10-10T02:27:48.461Z,96992.16
2023-10-10T02:29:40.404Z,96986.78
2023-10-10T02:31:14.113Z,96982.91
2023-10-10T02:32:48.001Z,96981.88
2023-10-10T02:34:20.720Z,96987.34
2023-10-10T02:35:56.582Z,96982.66
2023-10-10T02:37:28.472Z,96989.72
2023-10-10T02:39:18.527Z,96990.03
2023-10-10T02:40:54.686Z,96985.16
2023-10-10T02:42:26.681Z,96984.59
2023-10-10T02:44:11.038Z,96980.47
2023-10-10T02:45:46.258Z,96984.72
2023-10-10T02:47:31.993Z,96983.25
2023-10-10T02:49:10.746Z,96979.94
2023-10-10T02:50:42.464Z,96982.84
2023-10-10T02:52:15.932Z,96980.16
2023-10-10T02:53:48.044Z,96978.84
2023-10-10T02:55:34.503Z,96983.50
2023-10-10T02:57:27.072Z,96976.25
2023-10-10T02:58:59.011Z,96977.00
2023-10-10T03:00:30.925Z,96978.25
2023-10-10T03:02:10.943Z,96972.16
2023-10-10T03:03:43.276Z,96971.78
2023-10-10T03:05:21.442Z,96978.13
2023-10-10T03:06:53.194Z,96977.03
2023-10-10T03:08:35.971Z,96973.72
2023-10-10T03:10:08.678Z,96975.47
2023-10-10T03:11:54.938Z,96964.78
2023-10-10T03:13:29.624Z,96970.69
2023-10-10T03:15:13.833Z,96975.00
2023-10-10T03:16:47.004Z,96972.34
2023-10-10T03:18:29.322Z,96971.34
2023-10-10T03:20:24.022Z,96978.69
2023-10-10T03:22:15.758Z,96978.47
2023-10-10T03:24:08.581Z,96969.78
2023-10-10T03:26:00.692Z,96979.03
2023-10-10T03:27:55.909Z,96978.47
2023-10-10T03:29:47.916Z,96974.69
2023-10-10T03:31:19.600Z,96969.91
2023-10-10T03:33:10.776Z,96973.25
2023-10-10T03:34:46.186Z,96964.00
2023-10-10T03:36:20.507Z,96975.13
2023-10-10T03:38:05.921Z,96974.38
2023-10-10T03:39:50.140Z,96970.69
2023-10-10T03:41:24.689Z,96970.03
2023-10-10T03:43:16.842Z,96966.56
2023-10-10T03:45:08.546Z,96963.44
2023-10-10T03:46:59.112Z,96969.25
2023-10-10T03:48:49.240Z,96973.81
2023-10-10T03:50:39.596Z,96969.81
2023-10-10T03:52:30.030Z,96966.34
2023-10-10T03:54:20.381Z,96962.44
2023-10-10T03:56:15.234Z,96965.47
2023-10-10T03:58:05.707Z,96974.13
2023-10-10T03:59:56.215Z,96956.66
2023-10-10T04:01:47.913Z,96968.34
2023-10-10T04:03:38.317Z,96963.66
2023-10-10T04:05:28.690Z,96963.91
2023-10-10T04:07:19.012Z,96973.06
2023-10-10T04:09:09.407Z,96967.47
2023-10-10T04:11:05.149Z,96965.69
2023-10-10T04:12:55.469Z,96958.34
2023-10-10T04:14:45.982Z,96965.91
2023-10-10T04:16:36.566Z,96958.66
2023-10-10T04:18:28.222Z,96964.78
2023-10-10T04:20:18.717Z,96962.22
2023-10-10T04:22:09.171Z,96961.97
2023-10-10T04:23:59.646Z,96964.41
2023-10-10T04:25:49.962Z,96972.59
2023-10-10T04:27:40.409Z,96983.66
2023-10-10T04:29:30.890Z,96964.56
2023-10-10T04:31:24.425Z,96974.69
2023-10-10T04:33:14.905Z,96955.53
2023-10-10T04:35:06.802Z,96958.97
2023-10-10T04:36:57.122Z,96957.91
2023-10-10T04:38:47.531Z,96950.78
2023-10-10T04:40:37.952Z,96963.47
2023-10-10T04:42:28.341Z,96955.41
2023-10-10T04:44:18.861Z,96960.97
2023-10-10T04:46:09.119Z,96958.53
2023-10-10T04:47:59.692Z,96961.09
2023-10-10T04:49:49.820Z,96970.31
2023-10-10T04:51:43.535Z,96963.31
2023-10-10T04:53:34.084Z,96967.19
2023-10-10T04:55:25.132Z,96962.97
2023-10-10T04:57:15.434Z,96969.59
2023-10-10T04:59:26.841Z,96973.59
2023-10-10T05:01:24.881Z,96969.44
2023-10-10T05:03:15.500Z,96969.66
2023-10-10T05:05:05.684Z,96965.19
2023-10-10T05:06:57.374Z,96964.75
2023-10-10T05:08:47.838Z,96961.38
2023-10-10T05:10:38.199Z,96963.69
2023-10-10T05:12:28.605Z,96970.22
2023-10-10T05:14:19.046Z,96970.22
2023-10-10T05:16:09.393Z,96975.56
2023-10-10T05:18:00.041Z,96974.88
2023-10-10T05:19:50.485Z,96976.50
2023-10-10T05:21:41.061Z,96981.59
2023-10-10T05:23:35.662Z,96982.88
2023-10-10T05:25:14.202Z,96981.06
2023-10-10T05:26:48.730Z,96986.19
2023-10-10T05:28:21.222Z,96983.31
2023-10-10T05:29:52.904Z,96990.41
2023-10-10T05:31:24.646Z,96980.31
2023-10-10T05:33:06.457Z,96984.06
2023-10-10T05:34:38.521Z,96988.88
2023-10-10T05:36:10.359Z,96982.84
2023-10-10T05:37:42.324Z,96980.34
2023-10-10T05:39:24.430Z,96984.19
2023-10-10T05:40:59.459Z,96981.06
2023-10-10T05:42:35.236Z,96982.44
2023-10-10T05:44:09.092Z,96979.44
2023-10-10T05:45:41.106Z,96978.44
2023-10-10T05:47:12.761Z,96984.78
2023-10-10T05:48:45.540Z,96985.06
2023-10-10T05:50:19.626Z,96981.28
2023-10-10T05:51:53.055Z,96988.31
2023-10-10T05:53:25.795Z,96986.41
2023-10-10T05:54:58.850Z,96990.09
2023-10-10T05:56:31.773Z,96987.28
2023-10-10T05:58:03.721Z,96991.34
2023-10-10T05:59:35.650Z,96991.16
2023-10-10T06:01:09.105Z,96993.84
2023-10-10T06:02:43.326Z,96987.38
2023-10-10T06:04:15.293Z,96990.50
2023-10-10T06:05:47.216Z,96994.84
2023-10-10T06:07:18.983Z,96990.88
2023-10-10T06:09:01.290Z,96988.34
2023-10-10T06:10:34.938Z,96984.34
2023-10-10T06:12:12.643Z,96989.69
2023-10-10T06:13:46.866Z,96988.03
2023-10-10T06:15:19.106Z,96991.16
2023-10-10T06:16:53.516Z,96996.84
2023-10-10T06:18:25.444Z,96991.28
2023-10-10T06:19:58.267Z,96988.72
2023-10-10T06:21:30.789Z,96996.94
2023-10-10T06:23:03.513Z,97003.22
2023-10-10T06:24:35.387Z,97000.44
2023-10-10T06:26:08.564Z,96997.75
2023-10-10T06:27:42.167Z,97006.31
2023-10-10T06:29:16.847Z,97004.22
2023-10-10T06:30:49.517Z,97010.53
2023-10-10T06:32:22.093Z,97001.53
2023-10-10T06:33:59.128Z,97007.31
2023-10-10T06:35:36.378Z,97006.19
2023-10-10T06:37:11.569Z,97006.41
2023-10-10T06:38:43.306Z,97007.50
2023-10-10T06:40:15.394Z,97008.28
2023-10-10T06:41:51.286Z,97016.16
2023-10-10T06:43:23.624Z,97015.78
2023-10-10T06:44:55.420Z,97018.00
2023-10-10T06:46:33.395Z,97012.19
2023-10-10T06:48:05.894Z,97019.00
2023-10-10T06:49:58.410Z,97019.88
2023-10-10T06:51:31.911Z,97019.84
2023-10-10T06:53:05.081Z,97013.69
2023-10-10T06:54:36.991Z,97022.91
2023-10-10T06:56:18.892Z,97019.47
2023-10-10T06:58:00.537Z,97022.84
2023-10-10T06:59:32.492Z,97026.03
2023-10-10T07:01:05.981Z,97023.47
2023-10-10T07:02:41.790Z,97025.13
2023-10-10T07:04:14.619Z,97017.44
2023-10-10T07:05:46.544Z,97025.06
2023-10-10T07:07:20.036Z,97025.31
2023-10-10T07:09:11.656Z,97021.50
2023-10-10T07:10:45.842Z,97023.59
2023-10-10T07:12:17.699Z,97022.63
2023-10-10T07:13:59.736Z,97025.41
2023-10-10T07:15:35.965Z,97025.00
2023-10-10T07:17:12.740Z,97021.09
2023-10-10T07:18:44.712Z,97020.66
2023-10-10T07:20:16.651Z,97019.00
2023-10-10T07:21:49.129Z,97021.44
2023-10-10T07:23:24.034Z,97025.31
2023-10-10T07:25:08.235Z,97023.06
2023-10-10T07:26:43.139Z,97024.88
2023-10-10T07:28:15.382Z,97023.50
2023-10-10T07:29:48.410Z,97027.50
2023-10-10T07:31:22.210Z,97028.53
2023-10-10T07:32:54.147Z,97023.50
2023-10-10T07:34:36.281Z,97023.91
2023-10-10T07:36:14.033Z,97024.69
2023-10-10T07:37:45.878Z,97024.59
2023-10-10T07:39:37.477Z,97036.31
2023-10-10T07:41:09.935Z,97035.50
2023-10-10T07:42:41.626Z,97042.53
2023-10-10T07:44:13.399Z,97044.06
2023-10-10T07:45:46.468Z,97039.56
2023-10-10T07:47:18.110Z,97034.91
2023-10-10T07:48:55.334Z,97039.16
2023-10-10T07:50:35.897Z,97040.28
2023-10-10T07:52:17.135Z,97044.50
2023-10-10T07:53:59.689Z,97039.31
2023-10-10T07:55:51.834Z,97047.03
2023-10-10T07:57:23.688Z,97038.34
2023-10-10T07:58:58.064Z,97041.19
2023-10-10T08:00:40.126Z,97043.59
2023-10-10T08:02:31.996Z,97037.19
2023-10-10T08:04:06.407Z,97033.19
2023-10-10T08:05:38.137Z,97033.59
2023-10-10T08:07:10.068Z,97040.06
2023-10-10T08:08:42.032Z,97045.97
2023-10-10T08:10:39.242Z,97035.22
2023-10-10T08:12:11.273Z,97036.78
2023-10-10T08:13:49.804Z,97037.28
2023-10-10T08:15:21.923Z,97039.63
2023-10-10T08:17:03.242Z,97041.31
2023-10-10T08:18:53.822Z,97039.03
2023-10-10T08:20:44.999Z,97038.25
2023-10-10T08:22:16.905Z,97042.84
2023-10-10T08:23:48.608Z,97043.34
2023-10-10T08:25:20.330Z,97041.09
2023-10-10T08:26:53.156Z,97039.28
2023-10-10T08:28:25.111Z,97044.28
2023-10-10T08:29:56.743Z,97037.78
2023-10-10T08:31:28.418Z,97044.13
2023-10-10T08:33:00.404Z,97035.28
2023-10-10T08:34:39.445Z,97036.19
2023-10-10T08:36:11.082Z,97037.63
2023-10-10T08:37:42.692Z,97036.63
2023-10-10T08:39:17.379Z,97033.22
2023-10-10T08:40:58.283Z,97040.22
2023-10-10T08:42:29.944Z,97037.22
2023-10-10T08:44:05.254Z,97037.66
2023-10-10T08:45:41.189Z,97043.59
2023-10-10T08:47:20.244Z,97034.91
2023-10-10T08:48:52.435Z,97040.94
2023-10-10T08:50:25.576Z,97038.22
2023-10-10T08:52:02.140Z,97035.00
2023-10-10T08:53:36.587Z,97047.75
2023-10-10T08:55:11.424Z,97044.53
2023-10-10T08:56:43.757Z,97046.03
2023-10-10T08:58:15.425Z,97044.59
2023-10-10T08:59:53.658Z,97049.34
2023-10-10T09:01:25.464Z,97049.97
2023-10-10T09:02:57.227Z,97042.19
2023-10-10T09:04:31.945Z,97046.06
2023-10-10T09:06:20.229Z,97041.00
2023-10-10T09:07:54.237Z,97050.06
2023-10-10T09:09:34.284Z,97045.59
2023-10-10T09:11:10.812Z,97047.50
2023-10-10T09:13:03.316Z,97036.50
2023-10-10T09:14:40.685Z,97051.69
2023-10-10T09:16:14.837Z,97051.38
2023-10-10T09:17:47.239Z,97049.09
2023-10-10T09:19:19.137Z,97050.03
2023-10-10T09:20:50.848Z,97046.56
2023-10-10T09:22:35.159Z,97048.91
2023-10-10T09:24:27.244Z,97041.28
2023-10-10T09:26:30.976Z,97044.66
2023-10-10T09:28:07.608Z,97042.44
2023-10-10T09:29:48.268Z,97044.19
2023-10-10T09:31:28.079Z,97048.84
2023-10-10T09:33:01.760Z,97043.22
2023-10-10T09:34:42.225Z,97041.91
2023-10-10T09:36:17.329Z,97039.22
2023-10-10T09:37:50.692Z,97044.38
2023-10-10T09:39:40.002Z,97039.00
2023-10-10T09:41:12.237Z,97044.38
2023-10-10T09:42:54.130Z,97041.88
2023-10-10T09:44:26.204Z,97030.38
2023-10-10T09:47:57.680Z,97033.34
2023-10-10T09:49:53.066Z,97024.19
2023-10-10T09:51:44.185Z,97026.38
2023-10-10T09:53:24.394Z,97025.94
2023-10-10T09:54:56.859Z,97023.19
2023-10-10T09:56:30.369Z,97020.94
2023-10-10T09:58:02.779Z,97021.38
2023-10-10T09:59:38.680Z,97015.25
2023-10-10T10:01:20.112Z,97018.09
2023-10-10T10:02:58.020Z,97023.69
2023-10-10T10:04:38.311Z,97021.88
2023-10-10T10:06:22.962Z,97014.72
2023-10-10T10:08:00.492Z,97014.75
2023-10-10T10:09:48.223Z,97021.69
2023-10-10T10:11:27.185Z,97006.25
2023-10-10T10:13:15.199Z,97018.97
2023-10-10T10:14:51.642Z,97022.53
2023-10-10T10:16:33.768Z,97025.16
2023-10-10T10:18:19.645Z,97028.31
2023-10-10T10:19:51.401Z,97024.03
2023-10-10T10:21:31.668Z,97033.22
2023-10-10T10:23:03.662Z,97033.06
2023-10-10T10:24:53.931Z,97029.34
2023-10-10T10:26:33.672Z,97035.22
2023-10-10T10:28:12.295Z,97029.19
2023-10-10T10:29:55.050Z,97025.59
2023-10-10T10:31:29.982Z,97036.13
2023-10-10T10:33:01.912Z,97026.66
2023-10-10T10:34:36.208Z,97036.53
2023-10-10T10:36:07.912Z,97037.72
2023-10-10T10:37:40.889Z,97037.56
2023-10-10T10:39:34.646Z,97037.91
2023-10-10T10:41:09.412Z,97034.50
2023-10-10T10:42:43.214Z,97038.09
2023-10-10T10:44:28.330Z,97036.06
2023-10-10T10:46:28.770Z,97028.28
2023-10-10T10:48:01.298Z,97027.56
2023-10-10T10:49:38.802Z,97025.16
2023-10-10T10:51:33.810Z,97021.81
2023-10-10T10:53:09.290Z,97017.94
2023-10-10T10:54:44.251Z,97018.19
2023-10-10T10:56:17.261Z,97018.06
2023-10-10T10:57:50.887Z,97024.44
2023-10-10T10:59:22.913Z,97020.28
2023-10-10T11:01:00.609Z,97014.75
2023-10-10T11:02:32.522Z,97014.19
2023-10-10T11:04:06.726Z,97016.19
2023-10-10T11:05:38.958Z,97012.13
2023-10-10T11:07:28.701Z,97003.78
2023-10-10T11:09:24.712Z,97004.25
2023-10-10T11:10:56.386Z,96999.06
2023-10-10T11:12:38.072Z,97002.25
2023-10-10T11:14:19.915Z,96991.94
2023-10-10T11:15:54.884Z,96986.59
2023-10-10T11:17:26.579Z,96982.75
2023-10-10T11:18:58.493Z,96983.16
2023-10-10T11:20:31.083Z,96972.78
2023-10-10T11:22:06.610Z,96972.78
2023-10-10T11:23:43.288Z,96970.88
2023-10-10T11:25:23.547Z,96967.38
2023-10-10T11:27:07.909Z,96965.47
2023-10-10T11:28:48.768Z,96961.59
2023-10-10T11:30:25.706Z,96967.41
2023-10-10T11:32:07.659Z,96953.50
2023-10-10T11:34:12.090Z,96960.06
2023-10-10T11:35:47.940Z,96948.84
2023-10-10T11:37:25.457Z,96950.03
2023-10-10T11:39:15.607Z,96942.69
2023-10-10T11:40:53.511Z,96944.66
2023-10-10T11:42:29.882Z,96948.06
2023-10-10T11:44:03.977Z,96945.72
2023-10-10T11:45:52.294Z,96941.38
2023-10-10T11:47:27.723Z,96934.13
2023-10-10T11:49:01.225Z,96939.13
2023-10-10T11:50:44.477Z,96937.97
2023-10-10T11:52:19.939Z,96941.50
2023-10-10T11:53:55.732Z,96943.44
2023-10-10T11:55:28.025Z,96938.41
2023-10-10T11:57:01.031Z,96940.72
2023-10-10T11:58:38.749Z,96931.84
2023-10-10T12:00:26.538Z,96932.63
2023-10-10T12:02:08.833Z,96934.97
2023-10-10T12:03:40.748Z,96926.44
2023-10-10T12:05:31.058Z,96928.38
2023-10-10T12:07:06.449Z,96922.16
2023-10-10T12:08:39.462Z,96926.03
2023-10-10T12:10:13.217Z,96921.38
2023-10-10T12:11:44.965Z,96915.19
2023-10-10T12:13:28.530Z,96922.94
2023-10-10T12:15:01.855Z,96923.69
2023-10-10T12:16:35.937Z,96915.06
2023-10-10T12:18:10.716Z,96911.09
2023-10-10T12:19:46.523Z,96917.31
2023-10-10T12:21:22.481Z,96911.03
2023-10-10T12:22:54.701Z,96908.19
2023-10-10T12:24:26.784Z,96907.31
2023-10-10T12:26:00.419Z,96903.88
2023-10-10T12:27:32.075Z,96914.69
2023-10-10T12:29:03.806Z,96902.19
2023-10-10T12:30:35.499Z,96906.03
2023-10-10T12:32:20.057Z,96899.69
2023-10-10T12:33:55.038Z,96896.72
2023-10-10T12:35:27.906Z,96898.53
2023-10-10T12:37:02.717Z,96899.22
2023-10-10T12:38:34.606Z,96891.97
2023-10-10T12:40:10.337Z,96894.78
2023-10-10T12:41:47.600Z,96891.00
2023-10-10T12:43:19.614Z,96885.91
2023-10-10T12:44:51.310Z,96895.66
2023-10-10T12:46:23.155Z,96884.13
2023-10-10T12:47:58.391Z,96884.13
2023-10-10T12:49:30.218Z,96885.97
2023-10-10T12:51:02.650Z,96886.28
2023-10-10T12:52:44.547Z,96877.06
2023-10-10T12:54:18.946Z,96868.91
2023-10-10T12:55:53.460Z,96879.81
2023-10-10T12:57:25.225Z,96873.22
2023-10-10T12:59:19.227Z,96875.56
2023-10-10T13:00:57.665Z,96865.44
2023-10-10T13:02:29.555Z,96874.72
2023-10-10T13:04:08.998Z,96863.38
2023-10-10T13:05:40.985Z,96871.97
2023-10-10T13:07:14.142Z,96870.59
2023-10-10T13:08:50.347Z,96872.16
2023-10-10T13:10:27.749Z,96870.41
2023-10-10T13:12:03.749Z,96871.13
2023-10-10T13:13:46.379Z,96866.72
2023-10-10T13:15:28.977Z,96868.19
2023-10-10T13:17:21.664Z,96863.69
2023-10-10T13:18:54.524Z,96868.50
2023-10-10T13:20:27.518Z,96865.41
2023-10-10T13:21:59.608Z,96862.38
2023-10-10T13:23:31.993Z,96864.44
2023-10-10T13:25:10.597Z,96855.16
2023-10-10T13:26:43.379Z,96860.28
2023-10-10T13:28:18.568Z,96856.41
2023-10-10T13:29:50.270Z,96853.44
2023-10-10T13:31:30.510Z,96856.09
2023-10-10T13:33:02.504Z,96842.91
2023-10-10T13:34:38.260Z,96849.38
2023-10-10T13:36:13.154Z,96846.38
2023-10-10T13:37:45.056Z,96844.53
2023-10-10T13:39:17.241Z,96843.94
2023-10-10T13:40:50.347Z,96846.00
2023-10-10T13:42:22.337Z,96842.09
2023-10-10T13:43:53.964Z,96841.41
2023-10-10T13:45:29.302Z,96843.72
2023-10-10T13:47:01.369Z,96846.09
2023-10-10T13:48:33.214Z,96844.16
2023-10-10T13:50:29.585Z,96841.59
2023-10-10T13:52:05.853Z,96835.50
2023-10-10T13:53:40.794Z,96836.81
2023-10-10T13:55:12.773Z,96836.66
2023-10-10T13:56:45.100Z,96839.84
2023-10-10T13:58:18.154Z,96841.31
2023-10-10T13:59:50.613Z,96835.50
2023-10-10T14:01:37.854Z,96836.16
2023-10-10T14:03:10.434Z,96837.63
2023-10-10T14:04:49.908Z,96843.78
2023-10-10T14:06:23.626Z,96842.13
2023-10-10T14:07:56.596Z,96839.63
2023-10-10T14:09:42.505Z,96835.06
2023-10-10T14:11:23.576Z,96838.94
2023-10-10T14:13:03.420Z,96832.50
2023-10-10T14:14:46.138Z,96836.72
2023-10-10T14:16:18.029Z,96838.47
2023-10-10T14:17:50.549Z,96840.19
2023-10-10T14:19:28.366Z,96838.53
2023-10-10T14:21:08.898Z,96833.94
2023-10-10T14:22:49.849Z,96830.38
2023-10-10T14:24:32.107Z,96834.66
2023-10-10T14:26:20.106Z,96822.97
2023-10-10T14:27:51.885Z,96826.53
2023-10-10T14:29:23.715Z,96827.47
2023-10-10T14:30:58.275Z,96830.44
2023-10-10T14:32:38.206Z,96832.81
2023-10-10T14:34:13.030Z,96826.16
2023-10-10T14:35:45.388Z,96825.75
2023-10-10T14:37:33.978Z,96828.31
2023-10-10T14:39:09.606Z,96827.59
2023-10-10T14:40:42.908Z,96833.00
2023-10-10T14:42:15.262Z,96833.44
2023-10-10T14:43:50.266Z,96833.53
2023-10-10T14:45:29.792Z,96839.75
2023-10-10T14:47:05.477Z,96833.63
2023-10-10T14:48:37.876Z,96836.63
2023-10-10T14:50:13.882Z,96830.19
2023-10-10T14:51:49.696Z,96830.56
2023-10-10T14:53:23.861Z,96832.88
2023-10-10T14:54:55.624Z,96831.66
2023-10-10T14:56:36.790Z,96835.59
2023-10-10T14:58:12.506Z,96829.78
2023-10-10T14:59:44.300Z,96831.78
2023-10-10T15:01:19.333Z,96826.72
2023-10-10T15:02:54.430Z,96834.88
2023-10-10T15:04:29.750Z,96832.16
2023-10-10T15:06:07.388Z,96835.28
2023-10-10T15:07:43.118Z,96828.25
2023-10-10T15:09:15.819Z,96829.09
2023-10-10T15:10:47.931Z,96826.38
2023-10-10T15:12:21.027Z,96829.44
2023-10-10T15:13:55.383Z,96827.91
2023-10-10T15:15:27.119Z,96827.16
2023-10-10T15:16:59.657Z,96828.38
2023-10-10T15:18:32.004Z,96822.97
2023-10-10T15:20:07.268Z,96824.13
2023-10-10T15:21:39.462Z,96824.53
2023-10-10T15:23:11.364Z,96828.78
2023-10-10T15:24:43.481Z,96823.38
2023-10-10T15:26:21.741Z,96824.88
2023-10-10T15:27:55.776Z,96829.94
2023-10-10T15:29:28.025Z,96832.28
2023-10-10T15:31:00.037Z,96824.94
2023-10-10T15:32:41.253Z,96833.03
2023-10-10T15:34:14.926Z,96825.31
2023-10-10T15:35:50.944Z,96822.28
2023-10-10T15:37:27.915Z,96830.34
2023-10-10T15:39:05.158Z,96841.19
2023-10-10T15:40:40.795Z,96830.78
2023-10-10T15:42:12.491Z,96829.31
2023-10-10T15:43:48.190Z,96833.19
2023-10-10T15:45:23.101Z,96836.69
2023-10-10T15:46:59.747Z,96836.28
2023-10-10T15:48:31.551Z,96828.53
2023-10-10T15:50:03.811Z,96832.41
2023-10-10T15:51:39.160Z,96831.25
2023-10-10T15:53:13.277Z,96828.94
2023-10-10T15:54:45.363Z,96831.66
2023-10-10T15:56:17.119Z,96826.66
2023-10-10T15:57:49.177Z,96826.31
2023-10-10T15:59:22.488Z,96826.31
2023-10-10T16:00:58.891Z,96824.00
2023-10-10T16:02:32.182Z,96824.00
2023-10-10T16:04:14.037Z,96823.22
2023-10-10T16:05:46.718Z,96827.88
2023-10-10T16:07:18.568Z,96832.13
2023-10-10T16:08:50.877Z,96827.88
2023-10-10T16:10:22.742Z,96831.00
2023-10-10T16:11:54.471Z,96825.59
2023-10-10T16:13:26.248Z,96837.16
2023-10-10T16:15:01.382Z,96835.28
2023-10-10T16:16:33.231Z,96840.31
2023-10-10T16:18:07.567Z,96836.06
2023-10-10T16:19:43.153Z,96833.72
2023-10-10T16:21:17.856Z,96839.88
2023-10-10T16:22:49.561Z,96832.56
2023-10-10T16:24:21.685Z,96834.91
2023-10-10T16:25:53.322Z,96831.00
2023-10-10T16:27:25.164Z,96831.00
2023-10-10T16:28:58.394Z,96830.25
2023-10-10T16:30:31.440Z,96834.88
2023-10-10T16:32:08.280Z,96834.09
2023-10-10T16:33:40.599Z,96845.28
2023-10-10T16:35:12.599Z,96849.91
2023-10-10T16:36:46.850Z,96850.28
2023-10-10T16:38:23.330Z,96849.47
2023-10-10T16:39:55.230Z,96843.63
2023-10-10T16:41:26.952Z,96842.44
2023-10-10T16:42:58.615Z,96854.78
2023-10-10T16:44:30.368Z,96851.72
2023-10-10T16:46:03.886Z,96851.72
2023-10-10T16:47:37.973Z,96853.63
2023-10-10T16:49:09.889Z,96846.69
2023-10-10T16:50:43.098Z,96847.06
2023-10-10T16:52:14.806Z,96845.84
2023-10-10T16:53:46.609Z,96848.22
2023-10-10T16:55:18.897Z,96853.91
2023-10-10T16:56:50.593Z,96848.50
2023-10-10T16:58:23.864Z,96850.78
2023-10-10T16:59:57.587Z,96846.16
2023-10-10T17:01:31.070Z,96849.63
2023-10-10T17:03:02.787Z,96851.91
2023-10-10T17:04:34.718Z,96854.63
2023-10-10T17:06:09.582Z,96857.31
2023-10-10T17:07:41.574Z,96854.47
2023-10-10T17:09:14.700Z,96862.56
2023-10-10T17:10:48.512Z,96865.94
2023-10-10T17:12:20.447Z,96864.72
2023-10-10T17:13:52.267Z,96865.94
2023-10-10T17:15:23.921Z,96864.34
2023-10-10T17:16:56.899Z,96868.88
2023-10-10T17:18:28.926Z,96873.91
2023-10-10T17:20:00.980Z,96865.75
2023-10-10T17:21:33.316Z,96872.72
2023-10-10T17:23:05.254Z,96869.22
2023-10-10T17:24:36.966Z,96870.72
2023-10-10T17:26:09.387Z,96866.38
2023-10-10T17:27:41.396Z,96873.69
2023-10-10T17:29:13.186Z,96878.63
2023-10-10T17:30:47.302Z,96874.66
2023-10-10T17:32:20.272Z,96876.97
2023-10-10T17:33:52.002Z,96874.72
2023-10-10T17:35:23.819Z,96877.25
2023-10-10T17:36:58.915Z,96878.41
2023-10-10T17:38:30.719Z,96882.13
2023-10-10T17:40:02.666Z,96885.22
2023-10-10T17:41:36.063Z,96882.03
2023-10-10T17:43:10.837Z,96879.84
2023-10-10T17:44:42.534Z,96883.97
2023-10-10T17:46:14.931Z,96889.06
2023-10-10T17:47:48.297Z,96872.16
2023-10-10T17:49:21.078Z,96884.50
2023-10-10T17:50:52.698Z,96882.03
2023-10-10T17:52:24.954Z,96882.63
2023-10-10T17:53:56.680Z,96880.00
2023-10-10T17:55:28.350Z,96879.66
2023-10-10T17:57:00.069Z,96883.53
2023-10-10T17:58:31.687Z,96886.41
2023-10-10T18:00:14.407Z,96881.34
2023-10-10T18:01:46.184Z,96883.00
2023-10-10T18:03:20.465Z,96881.19
2023-10-10T18:04:52.579Z,96888.13
2023-10-10T18:06:24.939Z,96880.09
2023-10-10T18:07:59.244Z,96886.88
2023-10-10T18:09:33.518Z,96886.78
2023-10-10T18:11:05.444Z,96887.47
2023-10-10T18:12:38.119Z,96882.06
2023-10-10T18:14:09.845Z,96889.50
2023-10-10T18:15:42.048Z,96889.63
2023-10-10T18:17:15.903Z,96890.00
2023-10-10T18:18:53.009Z,96882.56
2023-10-10T18:20:25.364Z,96890.69
2023-10-10T18:21:57.191Z,96890.56
2023-10-10T18:23:29.572Z,96884.25
2023-10-10T18:25:01.436Z,96885.69
2023-10-10T18:26:38.306Z,96884.50
2023-10-10T18:28:10.003Z,96889.38
2023-10-10T18:29:41.653Z,96895.19
2023-10-10T18:31:13.753Z,96895.56
2023-10-10T18:32:45.592Z,96893.47
2023-10-10T18:34:18.848Z,96897.59
2023-10-10T18:35:50.543Z,96890.88
2023-10-10T18:37:24.896Z,96902.50
2023-10-10T18:38:58.899Z,96898.25
2023-10-10T18:40:31.317Z,96896.47
2023-10-10T18:42:05.508Z,96903.38
2023-10-10T18:43:37.280Z,96902.84
2023-10-10T18:45:13.659Z,96905.56
2023-10-10T18:46:45.574Z,96895.41
2023-10-10T18:48:18.083Z,96898.84
2023-10-10T18:49:51.274Z,96895.41
2023-10-10T18:51:23.577Z,96895.81
2023-10-10T18:52:57.439Z,96892.03
2023-10-10T18:54:31.787Z,96894.56
2023-10-10T18:56:06.542Z,96898.84
2023-10-10T18:57:39.287Z,96895.50
2023-10-10T18:59:12.547Z,96902.06
2023-10-10T19:00:44.281Z,96894.63
2023-10-10T19:02:16.253Z,96896.41
2023-10-10T19:03:48.423Z,96903.69